Traskwood, Arkansas
Current Conditions -  °F | °C
As of 5:53 PM on Friday 21 Nov 2014 (Local Time) from KHOT Reporting Station
Haze Haze  
Wind Chill: 50°   Ceiling: 300
Heat Index: 50°   Visibility: 5mi
Dew Point: 49°   Wind: 10mph
Humidity: 96%   Direction: 100°E
Pressure: 30.23"   Gusts: NA
Location:  34.45°N, 92.65°W
Report Text: KHOT 212353Z AUTO 10009KT 5SM BR OVC003 10/09 A3023 RMK AO2 RAE25 SLP237 P0000 60006 T01000094 10106 20089 53007
Loading
Personal Weather Stations






























Interactive Weather Map New forecast layout! Learn more

10-Day Weather Forecast

Advertisements
Track Severe Weather on mobile